Time;durP1;ratioP1;P1;durP2;ratioP2;P2;SDS_P1;SDS_P2;PMS_P1;PMS_P2;Temp;Humidity;BMP_temperature;BMP_pressure;BME280_temperature;BME280_humidity;BME280_pressure;Samples;Min_cycle;Max_cycle;Signal;HPM_P1;HPM_P2
2022/04/18 00:00:53;;;;;;;1.47;1.00;;;16.40;60.40;;;;;;5023230;28;20479;-48
2022/04/18 00:03:21;;;;;;;1.53;1.20;;;16.40;60.40;;;;;;5022859;28;20519;-48
2022/04/18 00:05:49;;;;;;;2.20;1.00;;;16.40;60.40;;;;;;5014677;28;20487;-47
2022/04/18 00:08:17;;;;;;;1.13;1.03;;;16.40;60.40;;;;;;5023628;28;20417;-47
2022/04/18 00:10:45;;;;;;;1.23;1.10;;;16.40;60.40;;;;;;5008296;28;20521;-48
2022/04/18 00:13:13;;;;;;;1.00;0.90;;;16.40;60.40;;;;;;5023668;28;20993;-47
2022/04/18 00:15:41;;;;;;;1.73;1.10;;;16.40;60.40;;;;;;5021273;28;20467;-47
2022/04/18 00:18:11;;;;;;;1.13;1.10;;;16.40;60.40;;;;;;5016160;28;20461;-48
2022/04/18 00:20:39;;;;;;;1.30;1.00;;;16.40;60.40;;;;;;5011641;28;20474;-48
2022/04/18 00:23:07;;;;;;;0.80;0.80;;;16.40;60.40;;;;;;5023133;28;21184;-47
2022/04/18 00:25:35;;;;;;;1.33;0.90;;;16.40;60.40;;;;;;5005349;28;20551;-47
2022/04/18 00:28:04;;;;;;;1.33;1.23;;;16.40;60.40;;;;;;5022348;28;20452;-47
2022/04/18 00:30:32;;;;;;;2.90;1.10;;;16.40;60.60;;;;;;5023913;28;20431;-48
2022/04/18 00:33:00;;;;;;;1.23;1.13;;;16.40;60.40;;;;;;5019358;28;20876;-48
2022/04/18 00:35:29;;;;;;;1.10;1.00;;;16.40;61.00;;;;;;5021114;28;20451;-48
2022/04/18 00:37:58;;;;;;;1.43;1.10;;;16.40;60.40;;;;;;5021176;28;20467;-47
2022/04/18 00:40:26;;;;;;;1.00;1.00;;;16.40;60.60;;;;;;5007552;28;21093;-48
2022/04/18 00:43:02;;;;;;;1.53;1.40;;;16.40;60.40;;;;;;5022756;28;20429;-46
2022/04/18 00:45:30;;;;;;;1.30;1.20;;;16.40;60.50;;;;;;5020654;28;20491;-47
2022/04/18 00:47:59;;;;;;;1.27;1.00;;;16.30;60.30;;;;;;5022106;28;20516;-47
2022/04/18 00:50:30;;;;;;;1.27;1.17;;;16.30;61.00;;;;;;5021490;28;20424;-47
2022/04/18 00:52:58;;;;;;;1.53;1.37;;;16.30;60.30;;;;;;5023745;28;20522;-47
2022/04/18 00:55:28;;;;;;;1.47;1.37;;;16.30;60.30;;;;;;5011113;28;20471;-48
2022/04/18 00:57:57;;;;;;;1.40;1.30;;;16.30;60.40;;;;;;5022034;28;20463;-47
2022/04/18 01:00:25;;;;;;;1.37;1.17;;;16.30;60.90;;;;;;5021061;28;20460;-47
2022/04/18 01:02:56;;;;;;;1.23;1.13;;;16.30;60.60;;;;;;5022312;28;20805;-47
2022/04/18 01:05:24;;;;;;;1.87;1.30;;;16.30;61.00;;;;;;5020245;28;20455;-47
2022/04/18 01:07:54;;;;;;;1.50;1.40;;;16.30;60.70;;;;;;5023552;28;20439;-48
2022/04/18 01:10:26;;;;;;;1.33;1.23;;;16.30;61.00;;;;;;5028885;28;20475;-47
2022/04/18 01:12:55;;;;;;;1.17;1.00;;;16.30;60.60;;;;;;5024911;28;20835;-47
2022/04/18 01:15:40;;;;;;;1.73;1.40;;;16.30;60.70;;;;;;5024620;28;20910;-48
2022/04/18 01:18:12;;;;;;;1.33;1.17;;;16.30;60.80;;;;;;5025773;28;20452;-47
2022/04/18 01:21:00;;;;;;;1.37;1.20;;;16.30;61.00;;;;;;5014384;28;20471;-48
2022/04/18 01:23:44;;;;;;;1.53;1.10;;;16.30;60.70;;;;;;5011004;28;20834;-48
2022/04/18 01:29:19;;;;;;;1.20;1.10;;;16.30;60.80;;;;;;5024975;28;20856;-46
2022/04/18 01:31:47;;;;;;;1.20;1.00;;;16.30;60.60;;;;;;5022210;28;20889;-47
2022/04/18 01:34:16;;;;;;;1.30;1.00;;;16.30;60.50;;;;;;5023656;28;20466;-47
2022/04/18 01:36:45;;;;;;;1.30;1.20;;;16.20;60.90;;;;;;5025489;28;20513;-47
2022/04/18 01:39:14;;;;;;;1.50;1.17;;;16.30;61.10;;;;;;5018697;28;20472;-47
2022/04/18 01:41:42;;;;;;;1.60;1.40;;;16.30;61.30;;;;;;5013876;28;21048;-48
2022/04/18 01:44:13;;;;;;;1.47;1.37;;;16.20;61.20;;;;;;5023810;28;20459;-47
2022/04/18 01:46:41;;;;;;;1.10;1.00;;;16.20;61.10;;;;;;5020570;28;20480;-47
2022/04/18 01:49:11;;;;;;;1.20;1.10;;;16.20;61.10;;;;;;5002783;28;20455;-48
2022/04/18 01:51:39;;;;;;;1.17;1.07;;;16.20;61.10;;;;;;5025667;28;20467;-47
2022/04/18 01:54:11;;;;;;;1.57;1.40;;;16.20;61.10;;;;;;5017320;28;20451;-47
2022/04/18 01:56:39;;;;;;;1.30;1.20;;;16.20;61.30;;;;;;5005003;28;20979;-47
2022/04/18 01:59:07;;;;;;;1.40;1.30;;;16.20;61.40;;;;;;5016760;28;20963;-47
2022/04/18 02:01:35;;;;;;;1.10;0.90;;;16.20;61.50;;;;;;5023748;28;20467;-47
2022/04/18 02:04:04;;;;;;;1.00;0.90;;;16.20;62.40;;;;;;5022319;28;20439;-47
2022/04/18 02:06:32;;;;;;;1.10;0.90;;;16.20;61.20;;;;;;5020767;28;20586;-47
2022/04/18 02:09:01;;;;;;;1.10;1.00;;;16.20;61.50;;;;;;5005791;28;20972;-47
2022/04/18 02:11:33;;;;;;;1.47;1.37;;;16.20;61.60;;;;;;4991888;28;20469;-48
2022/04/18 02:14:01;;;;;;;1.40;1.30;;;16.10;61.30;;;;;;5010063;28;20836;-48
2022/04/18 02:16:29;;;;;;;1.40;1.30;;;16.10;61.50;;;;;;5020936;28;20498;-47
2022/04/18 02:19:01;;;;;;;1.20;0.90;;;16.20;61.60;;;;;;5024013;28;20460;-48
2022/04/18 02:21:29;;;;;;;1.10;1.00;;;16.10;61.70;;;;;;5030827;28;20470;-47
2022/04/18 02:23:57;;;;;;;1.00;1.00;;;16.20;61.70;;;;;;5025678;28;20447;-48
2022/04/18 02:26:25;;;;;;;1.10;1.00;;;16.10;61.50;;;;;;5011811;28;20504;-48
2022/04/18 02:29:06;;;;;;;1.23;1.07;;;16.10;61.50;;;;;;5025730;28;20434;-47
2022/04/18 02:32:47;;;;;;;1.63;1.10;;;16.10;62.10;;;;;;5030518;28;20978;-47
2022/04/18 02:34:24;;;;;;;1.30;1.10;;;16.10;61.70;;;;;;5025370;28;20891;-47
2022/04/18 02:36:54;;;;;;;1.30;1.20;;;16.10;61.90;;;;;;5017128;28;20900;-47
2022/04/18 02:39:26;;;;;;;1.53;1.30;;;16.10;62.10;;;;;;5026191;28;20453;-47
2022/04/18 02:41:57;;;;;;;1.40;1.30;;;16.10;61.80;;;;;;5033397;28;20498;-47
2022/04/18 02:44:31;;;;;;;1.23;1.13;;;16.10;61.90;;;;;;5029152;28;20501;-47
2022/04/18 02:46:59;;;;;;;1.00;0.90;;;16.10;62.10;;;;;;5030817;28;20474;-48
2022/04/18 02:49:30;;;;;;;1.73;1.10;;;16.10;61.90;;;;;;5067883;22;20975;-45
2022/04/18 02:51:58;;;;;;;1.23;1.13;;;16.10;62.00;;;;;;5010102;28;21058;-46
2022/04/18 02:54:27;;;;;;;1.23;1.00;;;16.10;62.20;;;;;;5005601;28;20477;-47
2022/04/18 02:56:55;;;;;;;1.60;1.47;;;16.00;61.80;;;;;;5011316;28;20479;-47
2022/04/18 02:59:23;;;;;;;1.27;1.17;;;16.10;61.90;;;;;;5011004;28;20801;-46
2022/04/18 03:01:52;;;;;;;1.53;1.37;;;16.00;61.90;;;;;;5009203;28;20500;-45
2022/04/18 03:04:25;;;;;;;1.50;1.40;;;16.00;62.20;;;;;;5002421;28;20479;-47
2022/04/18 03:06:53;;;;;;;1.30;1.20;;;16.00;62.10;;;;;;5006749;28;20867;-45
2022/04/18 03:09:21;;;;;;;1.37;1.20;;;16.00;62.10;;;;;;5000482;28;20454;-46
2022/04/18 03:11:49;;;;;;;1.30;1.20;;;16.00;62.10;;;;;;4999990;28;20483;-45
2022/04/18 03:14:18;;;;;;;1.20;1.10;;;16.00;62.10;;;;;;5002109;28;20514;-47
2022/04/18 03:16:56;;;;;;;1.33;1.23;;;16.00;62.20;;;;;;5003905;28;20469;-46
2022/04/18 03:19:25;;;;;;;1.77;1.20;;;16.00;62.20;;;;;;5003210;28;21000;-47
2022/04/18 03:21:59;;;;;;;1.23;1.10;;;16.00;62.40;;;;;;5017088;28;20555;-45
2022/04/18 03:24:29;;;;;;;1.30;1.20;;;16.00;62.40;;;;;;5022458;28;20480;-46
2022/04/18 03:27:07;;;;;;;1.57;1.33;;;16.00;62.20;;;;;;5023217;28;20472;-45
2022/04/18 03:29:38;;;;;;;1.50;1.33;;;15.90;62.30;;;;;;5023192;28;20799;-46
2022/04/18 03:32:16;;;;;;;2.67;1.00;;;16.00;62.40;;;;;;5012607;28;20464;-47
2022/04/18 03:34:45;;;;;;;2.80;0.93;;;16.00;62.30;;;;;;5009603;28;20502;-47
2022/04/18 03:39:58;;;;;;;1.43;1.10;;;15.90;62.30;;;;;;5019528;28;20469;-49
2022/04/18 03:42:31;;;;;;;1.00;1.00;;;15.90;62.30;;;;;;5022877;28;20475;-46
2022/04/18 03:45:05;;;;;;;1.53;1.00;;;15.90;62.40;;;;;;5022367;28;20460;-46
2022/04/18 03:47:35;;;;;;;1.13;1.03;;;15.90;62.40;;;;;;5021260;28;20479;-46
2022/04/18 03:50:05;;;;;;;1.20;1.10;;;15.90;62.40;;;;;;5023922;28;20862;-45
2022/04/18 03:52:38;;;;;;;1.30;1.20;;;15.90;62.50;;;;;;5022404;28;20471;-45
2022/04/18 03:55:17;;;;;;;1.33;1.23;;;15.90;62.40;;;;;;5036715;28;20460;-44
2022/04/18 03:57:46;;;;;;;0.83;0.83;;;15.90;62.60;;;;;;5022900;28;20464;-48
2022/04/18 04:00:15;;;;;;;1.30;1.20;;;15.90;62.60;;;;;;5023656;28;20484;-44
2022/04/18 04:02:50;;;;;;;1.13;1.03;;;15.90;62.70;;;;;;5004447;28;20479;-45
2022/04/18 04:05:25;;;;;;;1.13;1.07;;;15.90;62.70;;;;;;4998487;28;20500;-45
2022/04/18 04:07:55;;;;;;;1.30;1.17;;;15.80;62.50;;;;;;5003310;28;20854;-48
2022/04/18 04:10:33;;;;;;;1.10;1.00;;;15.80;62.50;;;;;;5001923;28;20797;-45
2022/04/18 04:13:04;;;;;;;1.67;1.13;;;15.80;62.60;;;;;;5002558;28;20439;-46
2022/04/18 04:15:51;;;;;;;1.20;0.90;;;15.80;62.70;;;;;;5000996;28;20915;-44
2022/04/18 04:18:26;;;;;;;1.40;1.30;;;15.80;62.60;;;;;;5001763;28;20436;-47
2022/04/18 04:20:58;;;;;;;2.23;1.20;;;15.80;62.60;;;;;;5001849;28;20758;-44
2022/04/18 04:23:27;;;;;;;1.20;1.10;;;15.80;62.80;;;;;;5021025;28;20835;-48
2022/04/18 04:26:25;;;;;;;1.47;1.37;;;15.80;62.60;;;;;;5022448;28;20476;-46
2022/04/18 04:28:54;;;;;;;0.80;0.80;;;15.80;62.70;;;;;;5021558;28;20478;-48
2022/04/18 04:31:29;;;;;;;1.03;0.87;;;15.80;63.00;;;;;;5022146;28;20558;-45
2022/04/18 04:34:01;;;;;;;1.27;0.90;;;15.80;63.10;;;;;;5019974;28;20631;-48
2022/04/18 04:36:33;;;;;;;1.73;1.63;;;15.80;63.10;;;;;;5021257;28;20468;-46
2022/04/18 04:39:02;;;;;;;1.30;1.20;;;15.80;63.10;;;;;;5018029;28;20465;-47
2022/04/18 04:41:38;;;;;;;1.13;1.03;;;15.80;63.10;;;;;;5018492;28;20547;-44
2022/04/18 04:44:08;;;;;;;1.07;0.97;;;15.70;62.80;;;;;;5026112;28;20510;-47
2022/04/18 04:46:51;;;;;;;1.30;1.20;;;15.70;62.90;;;;;;5029450;28;20471;-45
2022/04/18 04:49:25;;;;;;;0.93;0.80;;;15.70;63.10;;;;;;5027417;28;20947;-46
2022/04/18 04:52:16;;;;;;;2.00;0.90;;;15.70;63.40;;;;;;5019287;28;20858;-47
2022/04/18 04:54:46;;;;;;;1.00;1.00;;;15.70;63.20;;;;;;5024761;28;20476;-44
2022/04/18 04:57:21;;;;;;;0.73;0.70;;;15.70;63.10;;;;;;5027988;28;20498;-46
2022/04/18 05:00:08;;;;;;;1.30;1.20;;;15.70;63.10;;;;;;5029673;28;20475;-46
2022/04/18 05:02:57;;;;;;;1.30;1.20;;;15.70;63.30;;;;;;5018062;28;20530;-48
2022/04/18 05:05:27;;;;;;;1.17;1.07;;;15.70;63.30;;;;;;5026134;28;20776;-45
2022/04/18 05:07:57;;;;;;;1.50;1.37;;;15.70;63.10;;;;;;5028965;28;20413;-45
2022/04/18 05:10:29;;;;;;;1.30;1.00;;;15.70;63.20;;;;;;5019889;28;20458;-46
2022/04/18 05:13:01;;;;;;;1.20;1.00;;;15.70;63.30;;;;;;5028752;28;20435;-44
2022/04/18 05:15:29;;;;;;;0.80;0.80;;;15.70;63.40;;;;;;5021390;28;20574;-46
2022/04/18 05:18:27;;;;;;;1.47;1.13;;;15.60;63.40;;;;;;4989191;28;21058;-46
2022/04/18 05:20:58;;;;;;;1.07;0.83;;;15.60;63.40;;;;;;5014101;28;20455;-46
2022/04/18 05:23:26;;;;;;;1.53;1.20;;;15.60;63.40;;;;;;5028183;28;20923;-47
2022/04/18 05:25:56;;;;;;;1.40;1.30;;;15.60;63.50;;;;;;5026817;28;20475;-46
2022/04/18 05:28:25;;;;;;;1.07;0.97;;;15.60;63.40;;;;;;5028216;28;20444;-46
2022/04/18 05:31:02;;;;;;;1.23;1.00;;;15.60;63.40;;;;;;5025347;28;20456;-48
2022/04/18 05:33:30;;;;;;;1.23;1.10;;;15.60;63.50;;;;;;5013584;28;20456;-43
2022/04/18 05:36:29;;;;;;;1.17;1.07;;;15.60;63.40;;;;;;5027966;28;20462;-47
2022/04/18 05:38:58;;;;;;;1.13;1.03;;;15.60;63.70;;;;;;5024250;28;21346;-44
2022/04/18 05:41:36;;;;;;;1.47;1.00;;;15.60;63.70;;;;;;5028943;28;21045;-48
2022/04/18 05:44:05;;;;;;;1.20;1.00;;;15.60;63.60;;;;;;5019108;28;20435;-47
2022/04/18 05:46:41;;;;;;;1.20;1.10;;;15.60;63.60;;;;;;5044730;28;20474;-46
2022/04/18 05:49:10;;;;;;;1.57;1.20;;;15.60;63.80;;;;;;5026827;28;20617;-46
2022/04/18 05:51:39;;;;;;;1.33;1.23;;;15.60;63.70;;;;;;5027945;28;20482;-47
2022/04/18 05:54:08;;;;;;;1.00;0.90;;;15.60;63.80;;;;;;5022508;28;20841;-48
2022/04/18 05:56:40;;;;;;;1.20;0.80;;;15.60;63.60;;;;;;5023308;28;20490;-46
2022/04/18 05:59:19;;;;;;;1.17;1.07;;;15.50;63.50;;;;;;5025757;28;20432;-47
2022/04/18 06:02:01;;;;;;;1.83;1.13;;;15.50;63.70;;;;;;5023644;28;20949;-46
2022/04/18 06:04:37;;;;;;;1.20;1.10;;;15.50;63.60;;;;;;5019279;28;20459;-46
2022/04/18 06:07:26;;;;;;;2.00;1.43;;;15.50;63.60;;;;;;5021169;28;20476;-47
2022/04/18 06:10:13;;;;;;;1.30;1.20;;;15.50;63.90;;;;;;5023900;28;20502;-45
2022/04/18 06:12:41;;;;;;;1.87;1.57;;;15.50;63.10;;;;;;5024337;28;20567;-47
2022/04/18 06:15:10;;;;;;;1.53;1.10;;;15.50;63.20;;;;;;5023483;28;20460;-44
2022/04/18 06:17:40;;;;;;;1.60;1.47;;;15.50;63.40;;;;;;5020252;28;20483;-47
2022/04/18 06:20:10;;;;;;;1.20;1.10;;;15.50;63.10;;;;;;5020418;28;20859;-47
2022/04/18 06:22:39;;;;;;;1.37;1.27;;;15.50;63.40;;;;;;5023086;28;20479;-46
2022/04/18 06:25:10;;;;;;;1.53;1.43;;;15.50;63.40;;;;;;5032818;28;20542;-46
2022/04/18 06:27:38;;;;;;;1.53;1.20;;;15.50;63.20;;;;;;5023466;28;20999;-48
2022/04/18 06:30:07;;;;;;;1.10;1.00;;;15.50;63.70;;;;;;5024747;28;20432;-48
2022/04/18 06:32:55;;;;;;;1.50;1.30;;;15.50;63.60;;;;;;5017511;28;20468;-45
2022/04/18 06:35:24;;;;;;;1.30;1.20;;;15.40;62.40;;;;;;5023606;28;20455;-45
2022/04/18 06:37:53;;;;;;;1.70;1.30;;;15.40;62.50;;;;;;5022542;28;20871;-45
2022/04/18 06:40:40;;;;;;;1.00;1.00;;;15.40;62.20;;;;;;5020291;28;20889;-45
2022/04/18 06:43:08;;;;;;;2.17;1.50;;;15.40;61.10;;;;;;5022212;28;20435;-47
2022/04/18 06:45:45;;;;;;;2.53;1.20;;;15.40;61.10;;;;;;5020950;28;20471;-44
2022/04/18 06:48:13;;;;;;;1.40;1.30;;;15.40;60.80;;;;;;5020382;28;21258;-46
2022/04/18 06:51:08;;;;;;;1.53;1.43;;;15.40;60.50;;;;;;5005897;28;20550;-47
2022/04/18 06:53:56;;;;;;;2.93;1.53;;;15.40;60.10;;;;;;5019356;28;20443;-45
2022/04/18 06:57:01;;;;;;;1.43;1.33;;;15.50;60.50;;;;;;5021023;28;20523;-46
2022/04/18 06:59:38;;;;;;;1.43;1.33;;;15.50;60.90;;;;;;5020140;28;20538;-46
2022/04/18 07:02:08;;;;;;;1.37;1.00;;;15.50;61.80;;;;;;5017756;28;20909;-45
2022/04/18 07:04:37;;;;;;;1.33;1.20;;;15.50;62.10;;;;;;5022696;28;20463;-47
2022/04/18 07:07:10;;;;;;;1.87;1.20;;;15.50;62.10;;;;;;5024640;28;20483;-45
2022/04/18 07:09:41;;;;;;;1.30;1.20;;;15.50;62.30;;;;;;5013978;28;20441;-44
2022/04/18 07:12:23;;;;;;;1.37;1.17;;;15.50;62.30;;;;;;5017766;28;20475;-46
2022/04/18 07:14:54;;;;;;;1.50;1.07;;;15.50;62.40;;;;;;5021251;28;20463;-47
2022/04/18 07:17:22;;;;;;;2.50;1.27;;;15.50;62.40;;;;;;5019363;28;20480;-48
2022/04/18 07:19:51;;;;;;;1.07;0.90;;;15.50;62.30;;;;;;5019757;28;20445;-47
2022/04/18 07:22:21;;;;;;;1.40;1.00;;;15.60;62.60;;;;;;5013997;28;21028;-46
2022/04/18 07:24:57;;;;;;;1.30;1.20;;;15.60;62.60;;;;;;5022066;28;20474;-46
2022/04/18 07:27:27;;;;;;;1.33;1.23;;;15.60;62.50;;;;;;5023071;28;20482;-46
2022/04/18 07:30:01;;;;;;;1.70;1.37;;;15.60;62.20;;;;;;5023949;28;20481;-46
2022/04/18 07:32:31;;;;;;;1.87;1.30;;;15.60;62.20;;;;;;5015921;28;20511;-45
2022/04/18 07:35:07;;;;;;;1.60;1.27;;;15.60;62.10;;;;;;5019698;28;20466;-49
2022/04/18 07:40:28;;;;;;;1.10;1.00;;;15.60;63.20;;;;;;5005558;28;20455;-48
2022/04/18 07:42:57;;;;;;;1.60;1.40;;;15.60;61.90;;;;;;5013993;28;20475;-46
2022/04/18 07:45:26;;;;;;;1.30;1.17;;;15.60;61.90;;;;;;5021963;28;20448;-46
2022/04/18 07:47:55;;;;;;;1.40;1.20;;;15.60;61.80;;;;;;4996925;28;20891;-47
2022/04/18 07:51:31;;;;;;;1.20;1.10;;;15.60;61.60;;;;;;5004945;28;20472;-45
2022/04/18 07:53:13;;;;;;;1.20;0.90;;;15.60;61.70;;;;;;5003354;28;20983;-48
2022/04/18 07:55:43;;;;;;;1.33;1.23;;;15.60;61.70;;;;;;4999954;28;20819;-47
2022/04/18 07:58:12;;;;;;;1.30;1.20;;;15.70;61.70;;;;;;5003365;28;20523;-45
2022/04/18 08:00:40;;;;;;;1.13;1.03;;;15.70;61.60;;;;;;5014380;28;20470;-46
2022/04/18 08:03:09;;;;;;;1.07;0.97;;;15.60;61.60;;;;;;5028701;28;20776;-45
2022/04/18 08:06:03;;;;;;;0.93;0.90;;;15.60;61.40;;;;;;5018184;28;20482;-48
2022/04/18 08:08:47;;;;;;;1.20;1.10;;;15.60;61.50;;;;;;5019994;28;20459;-46
2022/04/18 08:11:17;;;;;;;1.50;1.40;;;15.70;61.50;;;;;;5021998;28;20474;-46
2022/04/18 08:13:50;;;;;;;1.20;1.10;;;15.70;61.70;;;;;;5022458;28;20428;-47
2022/04/18 08:16:38;;;;;;;1.50;1.30;;;15.70;61.80;;;;;;5023465;28;20594;-46
2022/04/18 08:19:33;;;;;;;1.10;1.00;;;15.60;61.60;;;;;;5000732;28;20428;-45
2022/04/18 08:22:02;;;;;;;1.00;0.90;;;15.70;61.60;;;;;;5023724;28;20563;-48
2022/04/18 08:24:31;;;;;;;1.23;1.13;;;15.70;61.50;;;;;;5019808;28;20598;-46
2022/04/18 08:27:26;;;;;;;1.13;1.10;;;15.70;61.60;;;;;;5003907;28;20476;-46
2022/04/18 08:30:08;;;;;;;1.30;1.20;;;15.70;61.60;;;;;;5014729;28;20438;-46
2022/04/18 08:32:47;;;;;;;3.40;1.10;;;15.70;61.50;;;;;;5019296;28;20903;-47
2022/04/18 08:35:16;;;;;;;1.70;1.30;;;15.70;61.60;;;;;;5003296;28;20449;-45
2022/04/18 08:37:44;;;;;;;1.27;1.17;;;15.70;61.70;;;;;;5014141;28;20483;-49
2022/04/18 08:40:18;;;;;;;1.10;1.00;;;15.60;61.70;;;;;;5009539;28;20451;-47
2022/04/18 08:42:55;;;;;;;1.93;1.13;;;15.60;61.60;;;;;;5002441;28;20464;-46
2022/04/18 08:45:25;;;;;;;1.37;1.17;;;15.60;61.70;;;;;;5001928;28;20924;-46
2022/04/18 08:53:30;;;;;;;1.00;0.90;;;15.60;61.80;;;;;;5018980;28;20424;-46
2022/04/18 08:56:01;;;;;;;1.30;1.20;;;15.60;61.80;;;;;;5002529;28;20927;-46
2022/04/18 08:58:32;;;;;;;1.43;1.20;;;15.60;63.20;;;;;;5013272;28;20443;-45
2022/04/18 09:01:05;;;;;;;1.47;1.23;;;15.60;62.00;;;;;;5021619;28;20636;-44
2022/04/18 09:03:59;;;;;;;1.47;1.37;;;15.60;62.10;;;;;;5013108;28;20448;-44
2022/04/18 09:06:39;;;;;;;1.80;1.70;;;15.60;62.10;;;;;;5023734;28;20471;-47
2022/04/18 09:09:15;;;;;;;3.37;1.57;;;15.60;63.30;;;;;;5016202;28;20971;-45
2022/04/18 09:11:47;;;;;;;1.53;1.30;;;15.60;62.10;;;;;;5007566;28;20506;-47
2022/04/18 09:14:21;;;;;;;1.40;1.30;;;15.60;62.10;;;;;;5019730;28;20857;-46
2022/04/18 09:16:52;;;;;;;1.73;1.50;;;15.60;62.10;;;;;;5019264;28;20488;-48
2022/04/18 09:19:41;;;;;;;1.33;1.20;;;15.60;62.20;;;;;;5014198;28;20948;-45
2022/04/18 09:22:14;;;;;;;1.37;1.27;;;15.60;62.10;;;;;;5020362;28;20495;-46
2022/04/18 09:24:48;;;;;;;1.30;1.20;;;15.60;62.20;;;;;;5008474;28;20559;-44
2022/04/18 09:27:29;;;;;;;1.73;1.20;;;15.60;62.20;;;;;;5021223;28;20983;-48
2022/04/18 09:30:11;;;;;;;1.20;1.10;;;15.60;62.20;;;;;;5025364;28;20424;-47
2022/04/18 09:32:57;;;;;;;1.30;1.20;;;15.60;62.20;;;;;;5024629;28;20475;-46
2022/04/18 09:35:35;;;;;;;2.67;1.40;;;15.60;62.30;;;;;;5021587;28;20502;-47
2022/04/18 09:38:08;;;;;;;1.90;1.17;;;15.60;62.30;;;;;;5025053;28;20475;-46
2022/04/18 09:40:55;;;;;;;1.60;1.33;;;15.60;62.40;;;;;;5024768;28;20805;-46
2022/04/18 09:43:38;;;;;;;1.40;1.30;;;15.60;62.40;;;;;;5023229;28;20474;-48
2022/04/18 09:46:10;;;;;;;1.67;1.57;;;15.60;62.40;;;;;;5022773;28;20455;-45
2022/04/18 09:48:45;;;;;;;1.20;1.10;;;15.60;62.50;;;;;;5021139;28;21033;-46
2022/04/18 09:51:14;;;;;;;1.50;1.20;;;15.60;62.60;;;;;;5020530;28;20878;-48
2022/04/18 09:53:57;;;;;;;1.77;1.13;;;15.50;62.50;;;;;;5018707;28;20451;-45
2022/04/18 09:56:26;;;;;;;2.10;1.30;;;15.60;62.60;;;;;;5014211;28;20475;-45
2022/04/18 09:58:58;;;;;;;1.30;1.20;;;15.60;62.70;;;;;;5025931;28;20585;-47
2022/04/18 10:01:35;;;;;;;1.20;1.10;;;15.60;62.80;;;;;;5016091;28;20480;-46
2022/04/18 10:04:07;;;;;;;1.67;1.20;;;15.60;62.70;;;;;;5008785;28;20491;-46
2022/04/18 10:06:38;;;;;;;4.77;1.20;;;15.60;62.70;;;;;;5025422;28;20491;-46
2022/04/18 10:09:07;;;;;;;1.53;1.20;;;15.50;62.50;;;;;;5024416;28;20428;-48
2022/04/18 10:11:35;;;;;;;1.40;1.30;;;15.50;62.60;;;;;;5024446;28;20495;-45
2022/04/18 10:14:04;;;;;;;1.63;1.53;;;15.60;62.70;;;;;;5023815;28;20647;-45
2022/04/18 10:16:32;;;;;;;1.13;1.03;;;15.50;62.60;;;;;;5023207;28;20920;-46
2022/04/18 10:19:13;;;;;;;1.80;1.47;;;15.50;62.60;;;;;;5025887;28;20535;-46
2022/04/18 10:21:48;;;;;;;1.30;1.10;;;15.50;62.60;;;;;;5018413;28;20468;-47
2022/04/18 10:24:43;;;;;;;1.33;1.23;;;15.50;62.60;;;;;;5019066;28;20467;-45
2022/04/18 10:27:28;;;;;;;1.53;1.40;;;15.50;63.30;;;;;;5023259;28;20843;-46
2022/04/18 10:30:00;;;;;;;1.30;1.20;;;15.50;62.60;;;;;;5025358;28;20519;-46
2022/04/18 10:32:29;;;;;;;2.67;1.43;;;15.50;62.60;;;;;;5013152;28;21022;-48
2022/04/18 10:35:01;;;;;;;1.30;1.20;;;15.50;62.70;;;;;;5024825;28;20452;-46
2022/04/18 10:37:30;;;;;;;1.50;1.40;;;15.50;62.60;;;;;;5024918;28;20455;-45
2022/04/18 10:40:04;;;;;;;1.47;1.37;;;15.50;62.60;;;;;;5013973;28;20925;-47
2022/04/18 10:42:34;;;;;;;0.97;0.87;;;15.50;62.50;;;;;;5024225;28;20480;-47
2022/04/18 10:45:07;;;;;;;1.37;1.27;;;15.50;62.40;;;;;;5020425;28;21137;-46
2022/04/18 10:48:15;;;;;;;1.03;1.00;;;15.50;62.50;;;;;;5023666;28;20995;-44
2022/04/18 10:50:47;;;;;;;1.27;0.90;;;15.50;62.60;;;;;;5013394;28;20463;-47
2022/04/18 10:53:20;;;;;;;1.50;1.40;;;15.50;62.40;;;;;;5005463;28;20405;-44
2022/04/18 10:56:08;;;;;;;1.43;1.10;;;15.50;62.50;;;;;;5021683;28;20456;-45
2022/04/18 10:58:36;;;;;;;1.40;1.03;;;15.50;62.60;;;;;;5025519;28;20938;-46
2022/04/18 11:01:08;;;;;;;1.13;0.90;;;15.50;62.50;;;;;;5024999;28;20911;-46
2022/04/18 11:03:46;;;;;;;1.40;1.30;;;15.60;62.60;;;;;;5020362;28;20484;-45
2022/04/18 11:06:59;;;;;;;1.90;1.40;;;15.50;62.60;;;;;;5002895;28;20971;-48
2022/04/18 11:09:29;;;;;;;1.10;1.00;;;15.50;62.60;;;;;;5014386;28;20452;-45
2022/04/18 11:12:05;;;;;;;1.30;1.13;;;15.50;62.60;;;;;;5017995;28;20526;-46
2022/04/18 11:14:52;;;;;;;1.20;1.10;;;15.60;62.60;;;;;;5024092;28;20446;-46
2022/04/18 11:17:32;;;;;;;1.10;1.00;;;15.60;62.80;;;;;;5023961;28;20490;-46
2022/04/18 11:20:32;;;;;;;1.83;1.47;;;15.60;62.80;;;;;;5018971;28;20440;-45
2022/04/18 11:23:26;;;;;;;1.33;1.10;;;15.50;62.40;;;;;;4999198;28;20500;-48
2022/04/18 11:25:56;;;;;;;1.43;1.33;;;15.50;62.60;;;;;;4985815;28;20536;-49
2022/04/18 11:28:32;;;;;;;2.17;1.50;;;15.60;62.80;;;;;;5002630;28;20433;-47
2022/04/18 11:31:01;;;;;;;2.40;2.20;;;15.60;58.60;;;;;;5002679;28;20464;-46
2022/04/18 11:33:32;;;;;;;1.60;1.50;;;15.70;59.20;;;;;;5020419;28;21001;-47
2022/04/18 11:36:02;;;;;;;2.40;2.07;;;15.70;58.60;;;;;;5024873;28;20499;-47
2022/04/18 11:38:32;;;;;;;2.03;1.83;;;15.80;56.70;;;;;;5022311;28;20532;-47
2022/04/18 11:41:00;;;;;;;2.70;1.90;;;15.80;55.40;;;;;;5021437;28;20517;-48
2022/04/18 11:43:31;;;;;;;3.80;1.80;;;15.80;55.50;;;;;;5014992;28;20471;-45
2022/04/18 11:46:06;;;;;;;2.30;2.10;;;15.90;53.50;;;;;;5024242;28;20468;-45
2022/04/18 11:48:35;;;;;;;1.60;1.43;;;15.90;53.40;;;;;;5018361;28;20930;-50
2022/04/18 11:51:04;;;;;;;2.67;1.63;;;15.90;53.30;;;;;;5005829;28;20456;-47
2022/04/18 11:53:34;;;;;;;2.20;2.00;;;15.90;51.80;;;;;;5004172;28;20452;-45
2022/04/18 11:56:04;;;;;;;3.53;1.80;;;16.00;52.30;;;;;;5003562;28;20568;-46
2022/04/18 11:58:36;;;;;;;2.10;1.73;;;16.00;51.20;;;;;;5005206;28;20475;-47
2022/04/18 12:06:50;;;;;;;1.80;1.60;;;16.00;51.00;;;;;;4924859;29;20457;-47
2022/04/18 12:09:22;;;;;;;1.90;1.70;;;16.00;51.20;;;;;;5000145;28;20911;-45
2022/04/18 12:11:51;;;;;;;1.93;1.70;;;16.00;50.50;;;;;;5024723;28;20525;-46
2022/04/18 12:14:20;;;;;;;2.63;1.97;;;16.00;50.00;;;;;;5023465;28;20444;-45
2022/04/18 12:16:49;;;;;;;2.20;1.93;;;16.00;49.90;;;;;;5023577;28;20471;-46
2022/04/18 12:19:18;;;;;;;2.07;1.87;;;16.00;50.20;;;;;;5023004;28;20448;-45
2022/04/18 12:21:51;;;;;;;2.07;1.70;;;16.00;51.10;;;;;;5023445;28;20468;-46
2022/04/18 12:24:21;;;;;;;2.80;1.70;;;16.10;50.00;;;;;;5015474;28;20488;-47
2022/04/18 12:26:51;;;;;;;1.80;1.70;;;16.10;49.80;;;;;;5022787;28;20979;-47
2022/04/18 12:29:21;;;;;;;1.87;1.77;;;16.10;50.00;;;;;;5024171;28;20430;-47
2022/04/18 12:31:49;;;;;;;1.97;1.87;;;16.10;49.60;;;;;;5019834;28;20549;-47
2022/04/18 12:34:18;;;;;;;2.27;2.07;;;16.10;49.30;;;;;;5021532;28;20991;-47
2022/04/18 12:36:56;;;;;;;3.40;1.77;;;16.10;48.90;;;;;;5022047;28;21010;-46
2022/04/18 12:39:26;;;;;;;3.23;1.97;;;16.10;49.40;;;;;;5015721;28;20861;-44
2022/04/18 12:42:01;;;;;;;2.67;2.47;;;16.10;49.30;;;;;;5009476;28;20835;-46
2022/04/18 12:44:30;;;;;;;1.60;1.50;;;16.10;49.40;;;;;;5023385;28;20482;-47
2022/04/18 12:46:58;;;;;;;2.00;1.90;;;16.10;47.80;;;;;;5023198;28;20479;-45
2022/04/18 12:49:28;;;;;;;3.57;2.07;;;16.20;48.10;;;;;;5016911;28;20488;-46
2022/04/18 12:51:56;;;;;;;2.40;1.90;;;16.10;48.60;;;;;;5021504;28;20507;-48
2022/04/18 12:54:27;;;;;;;1.97;1.80;;;16.10;48.90;;;;;;5014902;28;20468;-46
2022/04/18 12:56:56;;;;;;;2.73;2.20;;;16.10;48.60;;;;;;5017906;28;20467;-47
2022/04/18 12:59:25;;;;;;;2.03;1.83;;;16.20;48.10;;;;;;5020696;28;20940;-48
2022/04/18 13:02:07;;;;;;;2.37;2.13;;;16.20;48.30;;;;;;5018768;28;20471;-45
2022/04/18 13:04:36;;;;;;;2.27;2.13;;;16.20;47.50;;;;;;5023693;28;20843;-47
2022/04/18 13:07:07;;;;;;;1.83;1.70;;;16.20;47.50;;;;;;5027609;28;20448;-48
2022/04/18 13:09:37;;;;;;;2.20;2.00;;;16.20;48.40;;;;;;5022269;28;20454;-48
2022/04/18 13:12:06;;;;;;;2.03;1.83;;;16.20;47.00;;;;;;5022540;28;20475;-47
2022/04/18 13:15:03;;;;;;;2.70;1.73;;;16.20;45.90;;;;;;5023253;28;20518;-44
2022/04/18 13:17:35;;;;;;;1.63;1.53;;;16.20;46.90;;;;;;5027225;28;20555;-48
2022/04/18 13:20:07;;;;;;;1.80;1.50;;;16.20;46.80;;;;;;5027787;28;20447;-45
2022/04/18 13:22:36;;;;;;;1.67;1.33;;;16.20;47.30;;;;;;5028130;28;20451;-47
2022/04/18 13:25:09;;;;;;;1.60;1.10;;;16.20;45.60;;;;;;5014255;28;20480;-46
2022/04/18 13:27:40;;;;;;;1.70;1.60;;;16.20;46.10;;;;;;5006956;28;20488;-48
2022/04/18 13:30:12;;;;;;;2.13;1.70;;;16.20;46.40;;;;;;5026819;28;20542;-47
2022/04/18 13:32:41;;;;;;;3.53;1.40;;;16.20;46.20;;;;;;5024841;28;20479;-44
2022/04/18 13:35:12;;;;;;;1.87;1.30;;;16.30;45.40;;;;;;5026201;28;20787;-44
2022/04/18 13:37:41;;;;;;;2.00;1.63;;;16.30;45.60;;;;;;5024532;28;20517;-47
2022/04/18 13:40:11;;;;;;;2.10;1.73;;;16.30;45.50;;;;;;5024912;28;20440;-47